createdAt,value
2023-05-06T00:00:22.528Z,12.80
2023-05-06T00:02:49.775Z,11.80
2023-05-06T00:05:18.699Z,13.13
2023-05-06T00:07:48.910Z,12.65
2023-05-06T00:10:17.133Z,13.05
2023-05-06T00:12:44.221Z,12.98
2023-05-06T00:15:12.096Z,12.88
2023-05-06T00:17:39.361Z,13.13
2023-05-06T00:20:07.582Z,12.20
2023-05-06T00:22:34.714Z,12.85
2023-05-06T00:25:01.836Z,12.43
2023-05-06T00:27:28.915Z,13.10
2023-05-06T00:29:56.906Z,13.50
2023-05-06T00:32:24.001Z,12.48
2023-05-06T00:34:51.512Z,13.40
2023-05-06T00:37:18.588Z,13.07
2023-05-06T00:39:45.717Z,13.88
2023-05-06T00:42:12.836Z,15.30
2023-05-06T00:44:40.173Z,13.10
2023-05-06T00:47:08.050Z,13.65
2023-05-06T00:49:35.224Z,14.27
2023-05-06T00:52:03.479Z,12.13
2023-05-06T00:54:31.012Z,13.90
2023-05-06T00:56:58.366Z,13.80
2023-05-06T00:59:25.421Z,13.15
2023-05-06T01:01:54.105Z,13.90
2023-05-06T01:04:22.767Z,15.05
2023-05-06T01:07:19.874Z,14.77
2023-05-06T01:10:08.112Z,14.75
2023-05-06T01:12:48.949Z,15.18
2023-05-06T01:15:23.745Z,13.43
2023-05-06T01:17:53.482Z,13.73
2023-05-06T01:20:22.137Z,13.70
2023-05-06T01:22:50.426Z,14.73
2023-05-06T01:25:22.529Z,14.80
2023-05-06T01:27:50.605Z,14.38
2023-05-06T01:30:19.599Z,13.55
2023-05-06T01:32:57.814Z,13.95
2023-05-06T01:35:35.768Z,14.52
2023-05-06T01:38:11.659Z,13.88
2023-05-06T01:40:41.693Z,13.80
2023-05-06T01:43:10.256Z,13.50
2023-05-06T01:45:39.642Z,13.85
2023-05-06T01:48:07.536Z,12.75
2023-05-06T01:50:35.884Z,13.63
2023-05-06T01:53:03.824Z,12.95
2023-05-06T01:55:32.323Z,12.77
2023-05-06T01:57:59.464Z,12.38
2023-05-06T02:00:26.975Z,13.18
2023-05-06T02:02:54.317Z,12.30
2023-05-06T02:05:22.137Z,12.65
2023-05-06T02:07:53.446Z,12.65
2023-05-06T02:10:21.166Z,12.65
2023-05-06T02:12:55.701Z,12.52
2023-05-06T02:15:23.218Z,12.80
2023-05-06T02:17:50.564Z,12.40
2023-05-06T02:20:17.679Z,11.45
2023-05-06T02:22:45.033Z,12.45
2023-05-06T02:25:12.028Z,11.25
2023-05-06T02:27:39.229Z,12.52
2023-05-06T02:30:07.173Z,11.52
2023-05-06T02:32:34.385Z,12.50
2023-05-06T02:35:01.522Z,13.18
2023-05-06T02:37:28.719Z,12.45
2023-05-06T02:39:55.738Z,11.70
2023-05-06T02:42:22.968Z,13.00
2023-05-06T02:44:50.362Z,13.05
2023-05-06T02:47:17.413Z,12.43
2023-05-06T02:49:44.731Z,12.43
2023-05-06T02:52:12.946Z,12.63
2023-05-06T02:54:40.028Z,11.95
2023-05-06T02:57:07.197Z,12.40
2023-05-06T02:59:35.712Z,13.15
2023-05-06T03:02:03.368Z,15.75
2023-05-06T03:04:30.666Z,14.65
2023-05-06T03:06:57.727Z,13.68
2023-05-06T03:09:24.929Z,13.82
2023-05-06T03:11:52.234Z,13.07
2023-05-06T03:14:20.373Z,13.10
2023-05-06T03:16:47.588Z,12.90
2023-05-06T03:19:15.576Z,11.95
2023-05-06T03:21:44.575Z,11.25
2023-05-06T03:24:11.783Z,11.23
2023-05-06T03:26:39.466Z,11.45
2023-05-06T03:29:07.991Z,10.50
2023-05-06T03:31:35.875Z,10.05
2023-05-06T03:34:03.549Z,10.25
2023-05-06T03:36:31.870Z,9.50
2023-05-06T03:38:59.700Z,10.40
2023-05-06T03:41:27.249Z,9.18
2023-05-06T03:43:55.910Z,8.93
2023-05-06T03:46:26.906Z,9.35
2023-05-06T03:48:54.409Z,9.80
2023-05-06T03:51:21.751Z,9.55
2023-05-06T03:53:48.814Z,8.48
2023-05-06T03:56:18.391Z,9.43
2023-05-06T03:58:49.324Z,9.30
2023-05-06T04:01:18.329Z,8.55
2023-05-06T04:03:46.029Z,9.65
2023-05-06T04:06:13.681Z,9.05
2023-05-06T04:08:40.892Z,8.90
2023-05-06T04:11:08.446Z,8.95
2023-05-06T04:13:37.325Z,8.32
2023-05-06T04:16:09.946Z,8.32
2023-05-06T04:18:41.098Z,8.15
2023-05-06T04:21:14.241Z,8.35
2023-05-06T04:23:44.716Z,7.88
2023-05-06T04:26:16.142Z,7.43
2023-05-06T04:28:44.847Z,9.05
2023-05-06T04:31:14.856Z,8.63
2023-05-06T04:33:48.282Z,9.13
2023-05-06T04:36:19.936Z,9.23
2023-05-06T04:39:10.632Z,9.30
2023-05-06T04:41:39.483Z,8.43
2023-05-06T04:44:07.219Z,9.70
2023-05-06T04:46:34.397Z,8.63
2023-05-06T04:49:02.911Z,8.85
2023-05-06T04:51:30.444Z,8.55
2023-05-06T04:53:58.639Z,9.10
2023-05-06T04:56:26.331Z,9.20
2023-05-06T04:58:54.224Z,9.07
2023-05-06T05:01:22.659Z,9.63
2023-05-06T05:03:50.590Z,9.95
2023-05-06T05:06:20.073Z,10.43
2023-05-06T05:08:47.867Z,11.10
2023-05-06T05:11:15.273Z,13.52
2023-05-06T05:13:42.871Z,13.32
2023-05-06T05:16:09.924Z,13.05
2023-05-06T05:18:40.232Z,14.63
2023-05-06T05:21:14.551Z,15.13
2023-05-06T05:23:41.681Z,15.20
2023-05-06T05:26:10.617Z,15.73
2023-05-06T05:28:38.802Z,15.35
2023-05-06T05:31:07.934Z,16.20
2023-05-06T05:33:36.818Z,14.98
2023-05-06T05:36:08.106Z,15.65
2023-05-06T05:38:36.434Z,16.48
2023-05-06T05:41:04.623Z,16.52
2023-05-06T05:43:31.774Z,16.25
2023-05-06T05:46:00.879Z,16.65
2023-05-06T05:48:32.916Z,15.48
2023-05-06T05:51:02.527Z,15.52
2023-05-06T05:53:29.818Z,14.70
2023-05-06T05:55:57.246Z,15.70
2023-05-06T05:58:24.712Z,15.40
2023-05-06T06:00:53.940Z,15.82
2023-05-06T06:03:21.317Z,16.05
2023-05-06T06:05:49.604Z,17.33
2023-05-06T06:08:18.991Z,17.67
2023-05-06T06:10:47.772Z,17.25
2023-05-06T06:13:19.948Z,19.17
2023-05-06T06:15:47.320Z,18.50
2023-05-06T06:18:15.348Z,19.58
2023-05-06T06:20:42.606Z,19.73
2023-05-06T06:23:09.930Z,15.23
2023-05-06T06:25:37.073Z,16.23
2023-05-06T06:28:04.350Z,15.95
2023-05-06T06:30:35.782Z,14.38
2023-05-06T06:33:03.053Z,13.07
2023-05-06T06:35:30.252Z,14.40
2023-05-06T06:37:57.359Z,14.35
2023-05-06T06:40:24.466Z,14.55
2023-05-06T06:42:51.784Z,12.63
2023-05-06T06:45:42.172Z,10.60
2023-05-06T06:48:09.432Z,10.57
2023-05-06T06:50:36.552Z,9.65
2023-05-06T06:53:05.596Z,9.73
2023-05-06T06:55:33.550Z,8.23
2023-05-06T06:58:00.540Z,8.60
2023-05-06T07:00:27.628Z,8.50
2023-05-06T07:02:54.792Z,8.75
2023-05-06T07:05:21.842Z,9.32
2023-05-06T07:07:49.016Z,8.07
2023-05-06T07:10:16.177Z,6.80
2023-05-06T07:12:43.304Z,7.75
2023-05-06T07:15:11.062Z,8.20
2023-05-06T07:17:38.338Z,6.47
2023-05-06T07:20:06.027Z,6.32
2023-05-06T07:22:33.133Z,5.50
2023-05-06T07:25:00.430Z,4.90
2023-05-06T07:27:30.480Z,5.88
2023-05-06T07:29:57.674Z,5.75
2023-05-06T07:32:24.883Z,6.15
2023-05-06T07:34:52.127Z,6.60
2023-05-06T07:37:19.149Z,6.70
2023-05-06T07:39:46.783Z,6.50
2023-05-06T07:42:13.891Z,5.72
2023-05-06T07:44:40.941Z,5.40
2023-05-06T07:47:08.368Z,5.63
2023-05-06T07:49:35.646Z,5.90
2023-05-06T07:52:03.777Z,5.57
2023-05-06T07:54:32.328Z,3.83
2023-05-06T07:56:59.355Z,5.20
2023-05-06T07:59:26.598Z,5.53
2023-05-06T08:01:53.597Z,5.03
2023-05-06T08:04:21.093Z,5.70
2023-05-06T08:06:48.097Z,6.00
2023-05-06T08:09:22.733Z,6.32
2023-05-06T08:11:50.954Z,5.60
2023-05-06T08:14:18.204Z,5.90
2023-05-06T08:16:45.529Z,6.15
2023-05-06T08:19:12.566Z,5.43
2023-05-06T08:21:39.700Z,5.40
2023-05-06T08:24:07.006Z,5.15
2023-05-06T08:26:34.192Z,5.68
2023-05-06T08:29:03.270Z,4.88
2023-05-06T08:31:30.910Z,4.28
2023-05-06T08:33:57.967Z,4.07
2023-05-06T08:36:25.497Z,4.60
2023-05-06T08:38:52.713Z,4.80
2023-05-06T08:41:21.982Z,5.72
2023-05-06T08:43:50.712Z,6.05
2023-05-06T08:46:18.442Z,5.82
2023-05-06T08:48:46.093Z,5.30
2023-05-06T08:51:17.590Z,5.30
2023-05-06T08:53:48.971Z,4.25
2023-05-06T08:56:16.964Z,4.18
2023-05-06T08:58:48.692Z,4.25
2023-05-06T09:01:18.903Z,4.05
2023-05-06T09:03:47.296Z,4.32
2023-05-06T09:06:14.343Z,5.15
2023-05-06T09:08:41.504Z,4.63
2023-05-06T09:11:29.536Z,5.60
2023-05-06T09:14:13.387Z,5.05
2023-05-06T09:16:43.615Z,5.32
2023-05-06T09:19:11.813Z,6.18
2023-05-06T09:21:44.091Z,5.45
2023-05-06T09:24:13.961Z,5.90
2023-05-06T09:26:43.253Z,5.47
2023-05-06T09:29:11.108Z,6.20
2023-05-06T09:31:46.299Z,6.60
2023-05-06T09:34:15.241Z,6.32
2023-05-06T09:36:42.763Z,6.20
2023-05-06T09:39:10.324Z,6.55
2023-05-06T09:41:38.080Z,6.95
2023-05-06T09:44:06.395Z,7.20
2023-05-06T09:46:33.965Z,7.47
2023-05-06T09:49:01.688Z,8.77
2023-05-06T09:51:31.234Z,7.20
2023-05-06T09:53:59.421Z,7.75
2023-05-06T09:56:27.102Z,7.55
2023-05-06T09:58:56.283Z,7.60
2023-05-06T10:01:35.326Z,8.18
2023-05-06T10:04:08.711Z,8.05
2023-05-06T10:06:39.942Z,8.88
2023-05-06T10:09:10.909Z,8.95
2023-05-06T10:11:39.241Z,8.15
2023-05-06T10:14:07.328Z,7.75
2023-05-06T10:16:36.570Z,8.00
2023-05-06T10:19:06.851Z,7.90
2023-05-06T10:21:39.689Z,8.35
2023-05-06T10:24:11.507Z,8.77
2023-05-06T10:26:39.864Z,7.25
2023-05-06T10:29:11.198Z,8.07
2023-05-06T10:31:54.146Z,6.70
2023-05-06T10:34:23.131Z,7.90
2023-05-06T10:36:58.004Z,7.55
2023-05-06T10:39:27.619Z,7.00
2023-05-06T10:41:55.278Z,6.47
2023-05-06T10:45:05.016Z,6.65
2023-05-06T10:47:57.210Z,6.82
2023-05-06T10:50:26.392Z,7.35
2023-05-06T10:52:56.340Z,6.90
2023-05-06T10:55:33.701Z,6.95
2023-05-06T10:58:04.146Z,7.80
2023-05-06T11:00:49.158Z,6.85
2023-05-06T11:03:18.981Z,7.10
2023-05-06T11:05:54.872Z,7.82
2023-05-06T11:08:26.797Z,8.05
2023-05-06T11:10:54.930Z,6.72
2023-05-06T11:13:30.424Z,7.57
2023-05-06T11:15:58.924Z,6.93
2023-05-06T11:18:26.924Z,7.10
2023-05-06T11:21:04.876Z,7.25
2023-05-06T11:23:58.195Z,7.32
2023-05-06T11:26:25.418Z,7.72
2023-05-06T11:28:52.704Z,7.93
2023-05-06T11:31:22.401Z,7.57
2023-05-06T11:33:55.273Z,6.95
2023-05-06T11:36:23.049Z,7.30
2023-05-06T11:38:52.791Z,7.45
2023-05-06T11:41:22.402Z,8.43
2023-05-06T11:43:51.085Z,7.38
2023-05-06T11:46:24.094Z,7.00
2023-05-06T11:48:51.300Z,8.23
2023-05-06T11:51:25.016Z,7.97
2023-05-06T11:53:53.199Z,8.15
2023-05-06T11:56:20.300Z,7.43
2023-05-06T11:58:47.492Z,7.60
2023-05-06T12:01:14.644Z,7.20
2023-05-06T12:03:41.830Z,7.00
2023-05-06T12:06:09.136Z,7.20
2023-05-06T12:08:37.229Z,7.30
2023-05-06T12:11:08.191Z,6.90
2023-05-06T12:13:40.858Z,7.20
2023-05-06T12:16:08.704Z,6.55
2023-05-06T12:18:36.413Z,6.85
2023-05-06T12:21:03.863Z,6.88
2023-05-06T12:23:31.350Z,6.50
2023-05-06T12:26:09.260Z,7.22
2023-05-06T12:28:37.368Z,8.15
2023-05-06T12:31:21.625Z,7.30
2023-05-06T12:33:50.543Z,6.32
2023-05-06T12:36:19.172Z,7.13
2023-05-06T12:38:52.813Z,6.68
2023-05-06T12:41:20.882Z,6.47
2023-05-06T12:43:48.333Z,8.27
2023-05-06T12:46:16.917Z,6.78
2023-05-06T12:49:00.221Z,6.47
2023-05-06T12:53:55.076Z,6.40
2023-05-06T12:56:22.742Z,6.75
2023-05-06T12:59:04.391Z,6.72
2023-05-06T13:01:32.099Z,6.50
2023-05-06T13:03:59.269Z,5.45
2023-05-06T13:06:26.374Z,6.05
2023-05-06T13:08:53.388Z,6.35
2023-05-06T13:11:22.553Z,6.18
2023-05-06T13:13:49.609Z,6.18
2023-05-06T13:16:17.266Z,6.43
2023-05-06T13:18:44.480Z,5.80
2023-05-06T13:21:13.251Z,5.97
2023-05-06T13:23:47.037Z,5.95
2023-05-06T13:26:15.034Z,6.40
2023-05-06T13:28:42.148Z,6.82
2023-05-06T13:31:09.509Z,6.07
2023-05-06T13:33:36.861Z,6.45
2023-05-06T13:36:05.393Z,6.15
2023-05-06T13:38:33.009Z,6.78
2023-05-06T13:41:00.564Z,5.72
2023-05-06T13:43:27.670Z,6.75
2023-05-06T13:45:54.914Z,7.30
2023-05-06T13:48:22.275Z,7.07
2023-05-06T13:50:49.687Z,6.88
2023-05-06T13:53:17.077Z,7.60
2023-05-06T13:55:44.226Z,7.18
2023-05-06T13:58:11.743Z,6.55
2023-05-06T14:00:41.942Z,7.53
2023-05-06T14:03:09.973Z,7.20
2023-05-06T14:05:37.132Z,5.80
2023-05-06T14:08:04.515Z,5.57
2023-05-06T14:10:31.554Z,6.15
2023-05-06T14:12:58.844Z,5.97
2023-05-06T14:15:26.259Z,5.63
2023-05-06T14:17:53.421Z,5.68
2023-05-06T14:20:20.814Z,5.38
2023-05-06T14:22:48.389Z,5.32
2023-05-06T14:25:15.455Z,5.55
2023-05-06T14:27:42.731Z,6.47
2023-05-06T14:30:10.217Z,6.53
2023-05-06T14:32:37.786Z,6.78
2023-05-06T14:35:05.566Z,5.80
2023-05-06T14:37:32.740Z,5.65
2023-05-06T14:40:00.000Z,6.85
2023-05-06T14:42:27.196Z,6.80
2023-05-06T14:44:55.209Z,7.15
2023-05-06T14:47:22.612Z,7.85
2023-05-06T14:49:50.604Z,7.20
2023-05-06T14:52:17.858Z,6.75
2023-05-06T14:54:45.042Z,7.18
2023-05-06T14:57:12.122Z,6.05
2023-05-06T14:59:39.336Z,7.82
2023-05-06T15:02:09.370Z,6.97
2023-05-06T15:04:37.349Z,6.70
2023-05-06T15:07:04.722Z,6.22
2023-05-06T15:09:31.943Z,5.88
2023-05-06T15:11:59.298Z,6.18
2023-05-06T15:16:57.387Z,7.15
2023-05-06T15:19:24.839Z,7.65
2023-05-06T15:21:52.071Z,6.75
2023-05-06T15:24:19.373Z,7.20
2023-05-06T15:26:46.598Z,6.53
2023-05-06T15:29:13.769Z,6.97
2023-05-06T15:31:43.824Z,6.68
2023-05-06T15:34:12.546Z,6.95
2023-05-06T15:36:42.909Z,6.65
2023-05-06T15:39:10.185Z,6.68
2023-05-06T15:41:38.766Z,5.32
2023-05-06T15:44:06.596Z,5.47
2023-05-06T15:46:33.878Z,6.10
2023-05-06T15:49:31.913Z,6.20
2023-05-06T15:51:49.042Z,6.18
2023-05-06T15:54:19.602Z,5.82
2023-05-06T15:56:47.141Z,5.57
2023-05-06T15:59:14.398Z,5.68
2023-05-06T16:04:16.626Z,6.82
2023-05-06T16:06:43.879Z,5.53
2023-05-06T16:09:11.559Z,5.60
2023-05-06T16:11:38.870Z,6.40
2023-05-06T16:14:06.258Z,7.07
2023-05-06T16:16:34.052Z,6.75
2023-05-06T16:19:04.130Z,7.10
2023-05-06T16:21:32.017Z,7.15
2023-05-06T16:24:01.477Z,6.60
2023-05-06T16:26:28.965Z,7.25
2023-05-06T16:28:56.397Z,6.20
2023-05-06T16:31:24.027Z,6.35
2023-05-06T16:33:51.210Z,5.60
2023-05-06T16:36:18.581Z,5.60
2023-05-06T16:38:45.806Z,6.95
2023-05-06T16:41:13.229Z,5.88
2023-05-06T16:43:40.513Z,5.90
2023-05-06T16:46:08.059Z,5.80
2023-05-06T16:48:35.515Z,6.85
2023-05-06T16:51:04.507Z,5.82
2023-05-06T16:53:32.158Z,6.43
2023-05-06T16:56:03.497Z,5.68
2023-05-06T16:58:30.814Z,6.95
2023-05-06T17:00:58.065Z,5.97
2023-05-06T17:03:26.387Z,6.32
2023-05-06T17:05:54.520Z,5.63
2023-05-06T17:08:24.189Z,6.13
2023-05-06T17:10:51.678Z,5.85
2023-05-06T17:13:19.033Z,6.15
2023-05-06T17:15:46.190Z,6.65
2023-05-06T17:18:13.352Z,5.80
2023-05-06T17:20:54.553Z,6.28
2023-05-06T17:23:23.766Z,6.13
2023-05-06T17:25:51.486Z,6.22
2023-05-06T17:28:19.062Z,7.13
2023-05-06T17:30:46.946Z,6.65
2023-05-06T17:33:14.128Z,7.35
2023-05-06T17:35:41.277Z,5.88
2023-05-06T17:38:13.304Z,6.22
2023-05-06T17:40:41.028Z,6.10
2023-05-06T17:43:08.460Z,6.95
2023-05-06T17:45:36.036Z,7.18
2023-05-06T17:48:03.368Z,7.53
2023-05-06T17:50:30.646Z,7.53
2023-05-06T17:52:57.937Z,7.15
2023-05-06T17:55:25.232Z,7.18
2023-05-06T17:57:52.948Z,9.20
2023-05-06T18:00:20.405Z,7.63
2023-05-06T18:02:47.972Z,5.60
2023-05-06T18:05:17.609Z,4.97
2023-05-06T18:07:45.013Z,4.53
2023-05-06T18:11:09.185Z,4.65
2023-05-06T18:13:36.883Z,5.00
2023-05-06T18:16:04.898Z,5.45
2023-05-06T18:18:31.990Z,3.83
2023-05-06T18:20:59.139Z,3.92
2023-05-06T18:23:26.631Z,3.90
2023-05-06T18:25:54.117Z,4.10
2023-05-06T18:28:21.121Z,3.90
2023-05-06T18:30:48.103Z,4.10
2023-05-06T18:33:15.234Z,4.07
2023-05-06T18:35:42.369Z,4.35
2023-05-06T18:38:11.038Z,4.80
2023-05-06T18:40:38.664Z,4.78
2023-05-06T18:43:08.332Z,4.60
2023-05-06T18:45:35.631Z,4.70
2023-05-06T18:48:02.945Z,4.78
2023-05-06T18:50:29.958Z,4.88
2023-05-06T18:52:57.086Z,5.35
2023-05-06T18:55:24.281Z,5.25
2023-05-06T18:57:51.406Z,5.72
2023-05-06T19:00:18.472Z,4.60
2023-05-06T19:02:46.019Z,5.28
2023-05-06T19:05:13.622Z,5.00
2023-05-06T19:07:41.617Z,5.43
2023-05-06T19:10:09.196Z,5.45
2023-05-06T19:12:36.505Z,6.10
2023-05-06T19:15:03.764Z,5.97
2023-05-06T19:17:30.919Z,6.03
2023-05-06T19:19:57.966Z,6.10
2023-05-06T19:22:25.269Z,5.45
2023-05-06T19:24:52.376Z,5.35
2023-05-06T19:27:19.509Z,5.20
2023-05-06T19:29:46.818Z,5.70
2023-05-06T19:32:14.050Z,4.88
2023-05-06T19:34:41.081Z,5.43
2023-05-06T19:37:08.469Z,5.28
2023-05-06T19:39:35.564Z,5.90
2023-05-06T19:42:02.961Z,5.97
2023-05-06T19:44:30.054Z,6.13
2023-05-06T19:46:57.169Z,5.00
2023-05-06T19:49:24.276Z,5.93
2023-05-06T19:51:51.481Z,5.88
2023-05-06T19:54:19.548Z,5.28
2023-05-06T19:56:46.840Z,6.32
2023-05-06T19:59:14.025Z,5.40
2023-05-06T20:01:43.966Z,6.20
2023-05-06T20:04:12.220Z,7.00
2023-05-06T20:06:39.303Z,5.60
2023-05-06T20:09:06.498Z,5.50
2023-05-06T20:11:33.836Z,6.25
2023-05-06T20:14:01.613Z,5.50
2023-05-06T20:16:28.976Z,5.43
2023-05-06T20:18:56.724Z,5.47
2023-05-06T20:21:23.951Z,5.68
2023-05-06T20:23:51.421Z,5.60
2023-05-06T20:26:18.880Z,5.63
2023-05-06T20:28:46.636Z,5.82
2023-05-06T20:31:13.694Z,4.78
2023-05-06T20:33:41.086Z,5.10
2023-05-06T20:36:08.632Z,5.75
2023-05-06T20:38:35.987Z,4.88
2023-05-06T20:41:03.250Z,5.15
2023-05-06T20:43:32.178Z,4.88
2023-05-06T20:45:59.459Z,5.32
2023-05-06T20:48:27.940Z,6.43
2023-05-06T20:50:57.087Z,6.63
2023-05-06T20:53:24.414Z,6.47
2023-05-06T20:55:51.845Z,5.35
2023-05-06T20:58:19.035Z,5.80
2023-05-06T21:00:46.177Z,5.30
2023-05-06T21:03:13.521Z,6.20
2023-05-06T21:05:40.687Z,5.25
2023-05-06T21:08:07.925Z,5.70
2023-05-06T21:10:37.972Z,5.35
2023-05-06T21:13:05.147Z,5.32
2023-05-06T21:15:34.584Z,5.65
2023-05-06T21:18:02.076Z,5.53
2023-05-06T21:20:29.324Z,5.47
2023-05-06T21:22:56.626Z,6.28
2023-05-06T21:25:23.828Z,5.95
2023-05-06T21:27:50.880Z,6.03
2023-05-06T21:30:17.992Z,6.03
2023-05-06T21:32:45.270Z,6.00
2023-05-06T21:35:12.588Z,5.85
2023-05-06T21:37:39.735Z,6.03
2023-05-06T21:40:07.349Z,7.10
2023-05-06T21:42:34.447Z,6.93
2023-05-06T21:45:01.503Z,6.82
2023-05-06T21:47:28.701Z,7.20
2023-05-06T21:49:55.770Z,6.35
2023-05-06T21:52:22.978Z,7.00
2023-05-06T21:54:50.032Z,7.20
2023-05-06T21:57:17.067Z,8.73
2023-05-06T21:59:44.164Z,8.23
2023-05-06T22:02:11.213Z,8.85
2023-05-06T22:04:38.451Z,9.07
2023-05-06T22:07:05.772Z,9.40
2023-05-06T22:09:32.805Z,9.68
2023-05-06T22:12:00.009Z,9.20
2023-05-06T22:14:37.392Z,9.55
2023-05-06T22:17:08.195Z,10.05
2023-05-06T22:19:35.229Z,9.73
2023-05-06T22:22:02.835Z,11.15
2023-05-06T22:24:29.897Z,10.45
2023-05-06T22:26:57.039Z,9.98
2023-05-06T22:29:24.113Z,9.18
2023-05-06T22:31:51.226Z,9.68
2023-05-06T22:34:18.333Z,9.98
2023-05-06T22:36:45.705Z,9.65
2023-05-06T22:39:12.960Z,9.63
2023-05-06T22:41:40.139Z,9.75
2023-05-06T22:44:07.183Z,10.07
2023-05-06T22:46:34.389Z,10.07
2023-05-06T22:49:01.516Z,10.57
2023-05-06T22:51:28.654Z,9.57
2023-05-06T22:53:55.808Z,10.10
2023-05-06T22:56:22.884Z,9.90
2023-05-06T22:58:50.056Z,8.90
2023-05-06T23:01:18.122Z,10.05
2023-05-06T23:03:45.217Z,9.38
2023-05-06T23:06:12.371Z,8.93
2023-05-06T23:08:39.450Z,8.52
2023-05-06T23:11:06.632Z,8.25
2023-05-06T23:13:36.585Z,7.80
2023-05-06T23:16:04.022Z,7.70
2023-05-06T23:18:31.081Z,7.30
2023-05-06T23:20:58.219Z,7.32
2023-05-06T23:23:25.461Z,7.38
2023-05-06T23:25:54.050Z,7.47
2023-05-06T23:28:21.384Z,6.88
2023-05-06T23:30:48.815Z,6.82
2023-05-06T23:33:15.957Z,7.07
2023-05-06T23:35:43.134Z,6.65
2023-05-06T23:38:10.310Z,6.53
2023-05-06T23:40:37.464Z,7.35
2023-05-06T23:43:07.293Z,7.28
2023-05-06T23:45:34.276Z,6.32
2023-05-06T23:48:01.670Z,6.70
2023-05-06T23:50:28.763Z,6.93
2023-05-06T23:52:56.071Z,6.53
2023-05-06T23:55:23.305Z,6.65
2023-05-06T23:57:50.460Z,6.32
